Time,TemperatureF,DewpointF,PressureIn,WindDirection,WindDirectionDegrees,WindSpeedMPH,WindSpeedGustMPH,Humidity,HourlyPrecipIn,Conditions,Clouds,dailyrainin,SoftwareType,DateUTC
2013-05-21 00:02:00,77.0,-99.9,29.98,SSE,159,9.0,14.0,-999,-99.99,,,-99.99,,2013-05-21 05:02:00,
2013-05-21 00:12:00,77.0,-99.9,29.97,SSE,165,7.0,13.0,-999,-99.99,,,-99.99,,2013-05-21 05:12:00,
2013-05-21 00:22:00,77.0,-99.9,29.98,SSE,161,11.0,15.0,-999,-99.99,,,-99.99,,2013-05-21 05:22:00,
2013-05-21 00:32:00,77.0,-99.9,29.98,SSE,164,12.0,15.0,-999,-99.99,,,-99.99,,2013-05-21 05:32:00,
2013-05-21 00:42:00,77.0,-99.9,29.98,SSE,157,9.0,13.0,-999,-99.99,,,-99.99,,2013-05-21 05:42:00,
2013-05-21 00:52:00,77.0,-99.9,29.97,North,-999,-999.0,-999.0,-999,-99.99,,,-99.99,,2013-05-21 05:52:00,
2013-05-21 01:02:00,77.0,-99.9,29.97,SSE,161,11.0,16.0,-999,-99.99,,,-99.99,,2013-05-21 06:02:00,
2013-05-21 01:12:00,77.0,-99.9,29.97,SSE,158,10.0,16.0,-999,-99.99,,,-99.99,,2013-05-21 06:12:00,
2013-05-21 01:21:00,77.0,-99.9,29.97,SSE,162,9.0,14.0,-999,-99.99,,,-99.99,,2013-05-21 06:21:00,
2013-05-21 01:32:00,77.0,-99.9,29.96,SSE,161,10.0,13.0,-999,-99.99,,,-99.99,,2013-05-21 06:32:00,
2013-05-21 01:42:00,77.0,-99.9,29.96,SSE,160,10.0,14.0,-999,-99.99,,,-99.99,,2013-05-21 06:42:00,
2013-05-21 01:52:00,77.0,-99.9,29.95,SSE,159,9.0,14.0,-999,-99.99,,,-99.99,,2013-05-21 06:52:00,
2013-05-21 02:01:00,77.0,-99.9,29.95,South,176,11.0,14.0,-999,-99.99,,,-99.99,,2013-05-21 07:01:00,
2013-05-21 02:11:00,77.0,-99.9,29.94,South,184,13.0,15.0,-999,-99.99,,,-99.99,,2013-05-21 07:11:00,
2013-05-21 02:22:00,77.0,-99.9,29.95,North,-999,-999.0,-999.0,-999,-99.99,,,-99.99,,2013-05-21 07:22:00,
2013-05-21 02:32:00,77.0,-99.9,29.95,South,184,12.0,16.0,-999,-99.99,,,-99.99,,2013-05-21 07:32:00,
2013-05-21 02:42:00,77.0,-99.9,29.94,SSE,168,10.0,14.0,-999,-99.99,,,-99.99,,2013-05-21 07:42:00,
2013-05-21 02:52:00,77.0,-99.9,29.94,SSE,165,12.0,15.0,-999,-99.99,,,-99.99,,2013-05-21 07:52:00,
2013-05-21 03:02:00,77.0,-99.9,29.94,South,172,10.0,13.0,-999,-99.99,,,-99.99,,2013-05-21 08:02:00,
2013-05-21 03:11:00,77.0,-99.9,29.94,South,173,11.0,15.0,-999,-99.99,,,-99.99,,2013-05-21 08:11:00,
2013-05-21 03:21:00,77.0,-99.9,29.93,North,-999,-999.0,-999.0,-999,-99.99,,,-99.99,,2013-05-21 08:21:00,
2013-05-21 03:31:00,77.0,-99.9,29.93,South,174,11.0,14.0,-999,-99.99,,,-99.99,,2013-05-21 08:31:00,
2013-05-21 03:42:00,77.0,-99.9,29.93,South,180,11.0,15.0,-999,-99.99,,,-99.99,,2013-05-21 08:42:00,
2013-05-21 03:52:00,77.0,-99.9,29.93,North,-999,-999.0,-999.0,-999,-99.99,,,-99.99,,2013-05-21 08:52:00,
2013-05-21 04:01:00,77.0,-99.9,29.93,SSE,166,11.0,16.0,-999,-99.99,,,-99.99,,2013-05-21 09:01:00,
2013-05-21 04:11:00,77.0,-99.9,29.93,South,174,11.0,15.0,-999,-99.99,,,-99.99,,2013-05-21 09:11:00,
2013-05-21 04:21:00,77.0,-99.9,29.93,South,174,11.0,15.0,-999,-99.99,,,-99.99,,2013-05-21 09:21:00,
2013-05-21 04:33:00,77.0,-99.9,29.93,South,181,10.0,14.0,-999,-99.99,,,-99.99,,2013-05-21 09:33:00,
2013-05-21 04:42:00,77.0,-99.9,29.93,South,177,10.0,14.0,-999,-99.99,,,-99.99,,2013-05-21 09:42:00,
2013-05-21 04:53:00,77.0,-99.9,29.93,South,184,10.0,14.0,-999,-99.99,,,-99.99,,2013-05-21 09:53:00,
2013-05-21 05:03:00,77.0,-99.9,29.93,South,175,10.0,13.0,-999,-99.99,,,-99.99,,2013-05-21 10:03:00,
2013-05-21 05:12:00,77.0,-99.9,29.93,South,180,10.0,14.0,-999,-99.99,,,-99.99,,2013-05-21 10:12:00,
2013-05-21 05:22:00,77.0,-99.9,29.93,South,170,12.0,14.0,-999,-99.99,,,-99.99,,2013-05-21 10:22:00,
2013-05-21 05:33:00,77.0,-99.9,29.93,South,183,8.0,12.0,-999,-99.99,,,-99.99,,2013-05-21 10:33:00,
2013-05-21 05:42:00,77.0,-99.9,29.93,SSE,163,8.0,14.0,-999,-99.99,,,-99.99,,2013-05-21 10:42:00,
2013-05-21 05:53:00,77.0,-99.9,29.93,North,-999,-999.0,-999.0,-999,-99.99,,,-99.99,,2013-05-21 10:53:00,
2013-05-21 06:02:00,77.0,-99.9,29.93,South,173,9.0,13.0,-999,-99.99,,,-99.99,,2013-05-21 11:02:00,
2013-05-21 06:12:00,77.0,-99.9,29.94,South,178,9.0,12.0,-999,-99.99,,,-99.99,,2013-05-21 11:12:00,
2013-05-21 06:22:00,77.0,-99.9,29.94,South,180,10.0,14.0,-999,-99.99,,,-99.99,,2013-05-21 11:22:00,
2013-05-21 06:32:00,77.0,-99.9,29.94,South,181,9.0,12.0,-999,-99.99,,,-99.99,,2013-05-21 11:32:00,
2013-05-21 06:42:00,77.0,-99.9,29.95,South,181,11.0,14.0,-999,-99.99,,,-99.99,,2013-05-21 11:42:00,
2013-05-21 06:52:00,77.0,-99.9,29.95,North,-999,-999.0,-999.0,-999,-99.99,,,-99.99,,2013-05-21 11:52:00,
2013-05-21 07:02:00,77.0,-99.9,29.96,South,171,11.0,13.0,-999,-99.99,,,-99.99,,2013-05-21 12:02:00,
2013-05-21 07:11:00,77.0,-99.9,29.96,South,184,11.0,13.0,-999,-99.99,,,-99.99,,2013-05-21 12:11:00,
2013-05-21 07:21:00,77.0,-99.9,29.96,South,183,10.0,13.0,-999,-99.99,,,-99.99,,2013-05-21 12:21:00,
2013-05-21 07:32:00,77.0,-99.9,29.96,South,183,9.0,11.0,-999,-99.99,,,-99.99,,2013-05-21 12:32:00,
2013-05-21 07:42:00,78.0,-99.9,29.96,South,177,8.0,11.0,-999,-99.99,,,-99.99,,2013-05-21 12:42:00,
2013-05-21 07:52:00,78.0,-99.9,29.96,South,177,8.0,10.0,-999,-99.99,,,-99.99,,2013-05-21 12:52:00,
2013-05-21 08:01:00,78.0,-99.9,29.96,South,180,6.0,8.0,-999,-99.99,,,-99.99,,2013-05-21 13:01:00,
2013-05-21 08:12:00,79.0,-99.9,29.97,SSE,165,7.0,10.0,-999,-99.99,,,-99.99,,2013-05-21 13:12:00,
2013-05-21 08:22:00,79.0,-99.9,29.97,North,-999,-999.0,-999.0,-999,-99.99,,,-99.99,,2013-05-21 13:22:00,
2013-05-21 08:32:00,79.0,-99.9,29.98,SSE,165,9.0,11.0,-999,-99.99,,,-99.99,,2013-05-21 13:32:00,
2013-05-21 08:42:00,79.0,-99.9,29.98,SSE,163,7.0,10.0,-999,-99.99,,,-99.99,,2013-05-21 13:42:00,
2013-05-21 08:52:00,79.0,-99.9,29.97,South,173,7.0,10.0,-999,-99.99,,,-99.99,,2013-05-21 13:52:00,
2013-05-21 09:02:00,79.0,-99.9,29.97,SSE,166,7.0,10.0,-999,-99.99,,,-99.99,,2013-05-21 14:02:00,
2013-05-21 09:11:00,79.0,-99.9,29.97,South,170,9.0,11.0,-999,-99.99,,,-99.99,,2013-05-21 14:11:00,
2013-05-21 09:21:00,80.0,-99.9,29.98,South,174,7.0,10.0,-999,-99.99,,,-99.99,,2013-05-21 14:21:00,
2013-05-21 09:32:00,79.0,-99.9,29.97,South,187,7.0,9.0,-999,-99.99,,,-99.99,,2013-05-21 14:32:00,
2013-05-21 09:42:00,80.0,-99.9,29.98,South,171,6.0,11.0,-999,-99.99,,,-99.99,,2013-05-21 14:42:00,
2013-05-21 09:52:00,80.0,-99.9,29.98,North,-999,-999.0,-999.0,-999,-99.99,,,-99.99,,2013-05-21 14:52:00,
2013-05-21 10:01:00,81.0,-99.9,29.98,South,176,7.0,11.0,-999,-99.99,,,-99.99,,2013-05-21 15:01:00,
2013-05-21 10:11:00,80.0,-99.9,29.98,South,174,6.0,10.0,-999,-99.99,,,-99.99,,2013-05-21 15:11:00,
2013-05-21 10:21:00,80.0,-99.9,29.98,SSE,161,8.0,10.0,-999,-99.99,,,-99.99,,2013-05-21 15:21:00,
2013-05-21 10:33:00,81.0,-99.9,29.98,South,172,8.0,11.0,-999,-99.99,,,-99.99,,2013-05-21 15:33:00,
2013-05-21 10:42:00,80.0,-99.9,29.98,South,170,9.0,12.0,-999,-99.99,,,-99.99,,2013-05-21 15:42:00,
2013-05-21 10:53:00,80.0,-99.9,29.98,SSE,162,8.0,11.0,-999,-99.99,,,-99.99,,2013-05-21 15:53:00,
2013-05-21 11:03:00,80.0,-99.9,29.99,South,171,7.0,10.0,-999,-99.99,,,-99.99,,2013-05-21 16:03:00,
2013-05-21 11:13:00,81.0,-99.9,29.98,SSE,164,6.0,10.0,-999,-99.99,,,-99.99,,2013-05-21 16:13:00,
2013-05-21 11:23:00,81.0,-99.9,29.98,South,174,9.0,13.0,-999,-99.99,,,-99.99,,2013-05-21 16:23:00,
2013-05-21 11:32:00,81.0,-99.9,29.99,South,178,8.0,11.0,-999,-99.99,,,-99.99,,2013-05-21 16:32:00,
2013-05-21 11:42:00,81.0,-99.9,29.99,South,170,10.0,13.0,-999,-99.99,,,-99.99,,2013-05-21 16:42:00,
2013-05-21 11:53:00,82.0,-99.9,29.99,SSE,151,8.0,13.0,-999,-99.99,,,-99.99,,2013-05-21 16:53:00,
2013-05-21 12:02:00,81.0,-99.9,29.99,SSE,168,9.0,12.0,-999,-99.99,,,-99.99,,2013-05-21 17:02:00,
2013-05-21 12:12:00,82.0,-99.9,29.99,SSE,151,6.0,11.0,-999,-99.99,,,-99.99,,2013-05-21 17:12:00,
2013-05-21 12:23:00,82.0,-99.9,29.99,SSE,154,7.0,14.0,-999,-99.99,,,-99.99,,2013-05-21 17:23:00,
2013-05-21 12:33:00,83.0,-99.9,29.99,SSE,154,7.0,12.0,-999,-99.99,,,-99.99,,2013-05-21 17:33:00,
2013-05-21 12:44:00,83.0,-99.9,29.98,SSE,149,9.0,13.0,-999,-99.99,,,-99.99,,2013-05-21 17:44:00,
2013-05-21 12:53:00,83.0,-99.9,29.98,SSE,156,11.0,13.0,-999,-99.99,,,-99.99,,2013-05-21 17:53:00,
2013-05-21 13:02:00,83.0,-99.9,29.98,SSE,158,8.0,14.0,-999,-99.99,,,-99.99,,2013-05-21 18:02:00,
2013-05-21 13:13:00,84.0,-99.9,29.97,SE,142,8.0,14.0,-999,-99.99,,,-99.99,,2013-05-21 18:13:00,
2013-05-21 13:22:00,82.0,-99.9,29.97,SE,143,11.0,16.0,-999,-99.99,,,-99.99,,2013-05-21 18:22:00,
2013-05-21 13:32:00,83.0,-99.9,29.97,SE,146,11.0,15.0,-999,-99.99,,,-99.99,,2013-05-21 18:32:00,
2013-05-21 13:42:00,84.0,-99.9,29.97,SE,139,12.0,16.0,-999,-99.99,,,-99.99,,2013-05-21 18:42:00,
2013-05-21 13:52:00,83.0,-99.9,29.96,North,-999,-999.0,-999.0,-999,-99.99,,,-99.99,,2013-05-21 18:52:00,
2013-05-21 14:02:00,83.0,-99.9,29.96,SSE,150,11.0,17.0,-999,-99.99,,,-99.99,,2013-05-21 19:02:00,
2013-05-21 14:12:00,84.0,-99.9,29.96,SSE,147,11.0,17.0,-999,-99.99,,,-99.99,,2013-05-21 19:12:00,
2013-05-21 14:22:00,84.0,-99.9,29.96,SE,145,10.0,15.0,-999,-99.99,,,-99.99,,2013-05-21 19:22:00,
2013-05-21 14:32:00,83.0,-99.9,29.96,SE,145,11.0,16.0,-999,-99.99,,,-99.99,,2013-05-21 19:32:00,
2013-05-21 14:42:00,83.0,-99.9,29.96,SE,135,12.0,18.0,-999,-99.99,,,-99.99,,2013-05-21 19:42:00,
2013-05-21 14:52:00,83.0,-99.9,29.96,North,-999,-999.0,-999.0,-999,-99.99,,,-99.99,,2013-05-21 19:52:00,
2013-05-21 15:03:00,81.0,-99.9,29.96,SE,125,13.0,18.0,-999,-99.99,,,-99.99,,2013-05-21 20:03:00,
2013-05-21 15:11:00,82.0,-99.9,29.95,SE,131,11.0,18.0,-999,-99.99,,,-99.99,,2013-05-21 20:11:00,
2013-05-21 15:22:00,82.0,-99.9,29.95,North,-999,-999.0,-999.0,-999,-99.99,,,-99.99,,2013-05-21 20:22:00,
2013-05-21 15:33:00,81.0,-99.9,29.95,ESE,121,12.0,16.0,-999,-99.99,,,-99.99,,2013-05-21 20:33:00,
2013-05-21 15:42:00,82.0,-99.9,29.95,SE,139,9.0,15.0,-999,-99.99,,,-99.99,,2013-05-21 20:42:00,
2013-05-21 15:52:00,82.0,-99.9,29.94,SSE,150,9.0,13.0,-999,-99.99,,,-99.99,,2013-05-21 20:52:00,
2013-05-21 16:02:00,82.0,-99.9,29.94,SE,137,8.0,13.0,-999,-99.99,,,-99.99,,2013-05-21 21:02:00,
2013-05-21 16:11:00,82.0,-99.9,29.94,SSE,149,8.0,11.0,-999,-99.99,,,-99.99,,2013-05-21 21:11:00,
2013-05-21 16:22:00,82.0,-99.9,29.94,SSE,159,8.0,14.0,-999,-99.99,,,-99.99,,2013-05-21 21:22:00,
2013-05-21 16:33:00,83.0,-99.9,29.93,SSE,153,8.0,12.0,-999,-99.99,,,-99.99,,2013-05-21 21:33:00,
2013-05-21 16:44:00,83.0,-99.9,29.93,SE,146,8.0,13.0,-999,-99.99,,,-99.99,,2013-05-21 21:44:00,
2013-05-21 16:54:00,82.0,-99.9,29.93,SSE,151,8.0,13.0,-999,-99.99,,,-99.99,,2013-05-21 21:54:00,
2013-05-21 17:02:00,82.0,-99.9,29.93,SSE,148,7.0,11.0,-999,-99.99,,,-99.99,,2013-05-21 22:02:00,
2013-05-21 17:13:00,82.0,-99.9,29.92,SE,137,11.0,16.0,-999,-99.99,,,-99.99,,2013-05-21 22:13:00,
2013-05-21 17:23:00,82.0,-99.9,29.92,SSE,156,10.0,13.0,-999,-99.99,,,-99.99,,2013-05-21 22:23:00,
2013-05-21 17:34:00,82.0,-99.9,29.92,SSE,158,9.0,15.0,-999,-99.99,,,-99.99,,2013-05-21 22:34:00,
2013-05-21 17:42:00,81.0,-99.9,29.92,SSE,162,11.0,17.0,-999,-99.99,,,-99.99,,2013-05-21 22:42:00,
2013-05-21 17:53:00,81.0,-99.9,29.91,North,-999,-999.0,-999.0,-999,-99.99,,,-99.99,,2013-05-21 22:53:00,
2013-05-21 18:02:00,81.0,-99.9,29.91,South,172,14.0,17.0,-999,-99.99,,,-99.99,,2013-05-21 23:02:00,
2013-05-21 18:12:00,81.0,-99.9,29.91,SSE,161,9.0,14.0,-999,-99.99,,,-99.99,,2013-05-21 23:12:00,
2013-05-21 18:22:00,80.0,-99.9,29.90,SSE,159,13.0,18.0,-999,-99.99,,,-99.99,,2013-05-21 23:22:00,
2013-05-21 18:32:00,80.0,-99.9,29.90,SSE,162,11.0,17.0,-999,-99.99,,,-99.99,,2013-05-21 23:32:00,
2013-05-21 18:42:00,80.0,-99.9,29.89,SSE,159,13.0,17.0,-999,-99.99,,,-99.99,,2013-05-21 23:42:00,
2013-05-21 18:52:00,80.0,-99.9,29.88,SSE,147,11.0,17.0,-999,-99.99,,,-99.99,,2013-05-21 23:52:00,
2013-05-21 19:01:00,80.0,-99.9,29.88,SE,146,9.0,17.0,-999,-99.99,,,-99.99,,2013-05-22 00:01:00,
2013-05-21 19:11:00,79.0,-99.9,29.88,SSE,150,11.0,16.0,-999,-99.99,,,-99.99,,2013-05-22 00:11:00,
2013-05-21 19:22:00,79.0,-99.9,29.88,SSE,147,10.0,16.0,-999,-99.99,,,-99.99,,2013-05-22 00:22:00,
2013-05-21 19:32:00,79.0,-99.9,29.88,SSE,159,11.0,18.0,-999,-99.99,,,-99.99,,2013-05-22 00:32:00,
2013-05-21 19:42:00,79.0,-99.9,29.88,SSE,148,13.0,17.0,-999,-99.99,,,-99.99,,2013-05-22 00:42:00,
2013-05-21 19:52:00,79.0,-99.9,29.87,SE,145,12.0,18.0,-999,-99.99,,,-99.99,,2013-05-22 00:52:00,
2013-05-21 20:01:00,79.0,-99.9,29.87,SSE,152,9.0,15.0,-999,-99.99,,,-99.99,,2013-05-22 01:01:00,
2013-05-21 20:11:00,79.0,-99.9,29.87,SE,146,11.0,16.0,-999,-99.99,,,-99.99,,2013-05-22 01:11:00,
2013-05-21 20:22:00,79.0,-99.9,29.87,SSE,157,12.0,16.0,-999,-99.99,,,-99.99,,2013-05-22 01:22:00,
2013-05-21 20:32:00,79.0,-99.9,29.88,SE,145,8.0,16.0,-999,-99.99,,,-99.99,,2013-05-22 01:32:00,
2013-05-21 20:42:00,78.0,-99.9,29.88,SSE,161,12.0,16.0,-999,-99.99,,,-99.99,,2013-05-22 01:42:00,
2013-05-21 20:52:00,79.0,-99.9,29.88,North,-999,-999.0,-999.0,-999,-99.99,,,-99.99,,2013-05-22 01:52:00,
2013-05-21 21:02:00,78.0,-99.9,29.88,SSE,152,11.0,17.0,-999,-99.99,,,-99.99,,2013-05-22 02:02:00,
2013-05-21 21:12:00,78.0,-99.9,29.89,SSE,156,9.0,16.0,-999,-99.99,,,-99.99,,2013-05-22 02:12:00,
2013-05-21 21:22:00,78.0,-99.9,29.89,North,-999,-999.0,-999.0,-999,-99.99,,,-99.99,,2013-05-22 02:22:00,
2013-05-21 21:32:00,78.0,-99.9,29.89,SSE,147,9.0,13.0,-999,-99.99,,,-99.99,,2013-05-22 02:32:00,
2013-05-21 21:42:00,78.0,-99.9,29.89,SE,144,9.0,13.0,-999,-99.99,,,-99.99,,2013-05-22 02:42:00,
2013-05-21 21:52:00,78.0,-99.9,29.89,North,-999,-999.0,-999.0,-999,-99.99,,,-99.99,,2013-05-22 02:52:00,
2013-05-21 22:01:00,78.0,-99.9,29.90,SSE,156,10.0,14.0,-999,-99.99,,,-99.99,,2013-05-22 03:01:00,
2013-05-21 22:11:00,78.0,-99.9,29.91,SSE,147,7.0,14.0,-999,-99.99,,,-99.99,,2013-05-22 03:11:00,
2013-05-21 22:22:00,78.0,-99.9,29.92,SSE,165,10.0,13.0,-999,-99.99,,,-99.99,,2013-05-22 03:22:00,
2013-05-21 22:33:00,78.0,-99.9,29.92,SSE,155,7.0,11.0,-999,-99.99,,,-99.99,,2013-05-22 03:33:00,
2013-05-21 22:43:00,78.0,-99.9,29.93,SSE,159,8.0,13.0,-999,-99.99,,,-99.99,,2013-05-22 03:43:00,
2013-05-21 22:53:00,78.0,-99.9,29.93,North,-999,-999.0,-999.0,-999,-99.99,,,-99.99,,2013-05-22 03:53:00,
2013-05-21 23:04:00,78.0,-99.9,29.93,SSE,157,8.0,12.0,-999,-99.99,,,-99.99,,2013-05-22 04:04:00,
2013-05-21 23:13:00,78.0,-99.9,29.93,SSE,155,7.0,11.0,-999,-99.99,,,-99.99,,2013-05-22 04:13:00,
2013-05-21 23:23:00,78.0,-99.9,29.93,SSE,162,8.0,9.0,-999,-99.99,,,-99.99,,2013-05-22 04:23:00,
2013-05-21 23:33:00,78.0,-99.9,29.93,SSE,160,9.0,12.0,-999,-99.99,,,-99.99,,2013-05-22 04:33:00,
2013-05-21 23:43:00,78.0,-99.9,29.92,SSE,165,9.0,12.0,-999,-99.99,,,-99.99,,2013-05-22 04:43:00,
2013-05-21 23:53:00,78.0,-99.9,29.93,SSE,164,8.0,11.0,-999,-99.99,,,-99.99,,2013-05-22 04:53:00,